Time;durP1;ratioP1;P1;durP2;ratioP2;P2;SDS_P1;SDS_P2;PMS_P1;PMS_P2;Temp;Humidity;BMP_temperature;BMP_pressure;BME280_temperature;BME280_humidity;BME280_pressure;Samples;Min_cycle;Max_cycle;Signal;HPM_P1;HPM_P2
2021/07/28 00:02:04;;;;;;;15.57;12.73;;;16.60;96.30;;;;;;5108386;28;20048;-65
2021/07/28 00:04:37;;;;;;;18.33;13.23;;;16.60;96.30;;;;;;5109058;28;20044;-64
2021/07/28 00:07:04;;;;;;;14.57;12.53;;;16.60;96.40;;;;;;5108562;28;20098;-64
2021/07/28 00:09:30;;;;;;;16.30;12.83;;;16.60;96.30;;;;;;5108998;28;20102;-65
2021/07/28 00:11:55;;;;;;;15.80;13.13;;;16.70;96.40;;;;;;5109023;28;20052;-65
2021/07/28 00:14:21;;;;;;;16.60;13.50;;;16.60;96.30;;;;;;5108559;28;20057;-65
2021/07/28 00:16:47;;;;;;;16.03;13.00;;;16.60;96.30;;;;;;5108260;28;20104;-66
2021/07/28 00:19:19;;;;;;;16.87;14.43;;;16.60;96.40;;;;;;5109143;28;20044;-65
2021/07/28 00:24:32;;;;;;;19.87;14.10;;;16.60;96.40;;;;;;5107935;28;20055;-65
2021/07/28 00:27:01;;;;;;;19.43;14.60;;;16.60;96.40;;;;;;5109105;28;20144;-65
2021/07/28 00:29:27;;;;;;;17.20;13.07;;;16.60;96.30;;;;;;5109327;28;20060;-65
2021/07/28 00:31:53;;;;;;;16.07;13.87;;;16.60;96.40;;;;;;5108396;28;20048;-65
2021/07/28 00:34:19;;;;;;;17.77;14.53;;;16.60;96.30;;;;;;5108323;28;20402;-65
2021/07/28 00:36:44;;;;;;;19.90;14.67;;;16.60;96.30;;;;;;5108576;28;20564;-65
2021/07/28 00:39:10;;;;;;;18.77;15.10;;;16.50;96.30;;;;;;5108209;28;20075;-65
2021/07/28 00:41:43;;;;;;;17.23;14.27;;;16.50;96.30;;;;;;5108538;28;20130;-65
2021/07/28 00:44:09;;;;;;;19.60;14.07;;;16.50;96.40;;;;;;5107714;28;20048;-65
2021/07/28 00:46:35;;;;;;;16.43;14.10;;;16.50;96.30;;;;;;5109209;28;20047;-64
2021/07/28 00:49:01;;;;;;;21.53;14.70;;;16.40;96.40;;;;;;5108503;28;20058;-65
2021/07/28 00:51:26;;;;;;;18.23;15.00;;;16.50;96.40;;;;;;5107844;28;20059;-64
2021/07/28 00:53:52;;;;;;;19.73;14.97;;;16.40;96.40;;;;;;5108860;28;20043;-64
2021/07/28 00:56:18;;;;;;;18.80;16.10;;;16.40;96.40;;;;;;5108813;28;20070;-65
2021/07/28 00:58:44;;;;;;;18.40;16.10;;;16.40;96.40;;;;;;5107875;28;20040;-64
2021/07/28 01:01:10;;;;;;;19.20;15.80;;;16.40;96.50;;;;;;5107869;28;20046;-64
2021/07/28 01:03:38;;;;;;;20.20;16.00;;;16.30;96.50;;;;;;5108610;28;20054;-65
2021/07/28 01:06:04;;;;;;;22.37;16.00;;;16.30;96.50;;;;;;5107887;28;20125;-65
2021/07/28 01:08:33;;;;;;;17.73;15.77;;;16.30;96.50;;;;;;5108413;28;20322;-64
2021/07/28 01:11:01;;;;;;;21.97;16.67;;;16.30;96.50;;;;;;5108380;28;20047;-65
2021/07/28 01:13:28;;;;;;;23.27;17.80;;;16.30;96.60;;;;;;5108219;28;20058;-65
2021/07/28 01:16:10;;;;;;;21.93;17.40;;;16.30;96.60;;;;;;5108334;28;20506;-65
2021/07/28 01:18:36;;;;;;;22.77;17.40;;;16.20;96.60;;;;;;5108121;28;20075;-65
2021/07/28 01:21:05;;;;;;;23.83;17.10;;;16.20;96.60;;;;;;5107612;28;20044;-65
2021/07/28 01:23:31;;;;;;;23.63;17.30;;;16.20;96.70;;;;;;5108679;28;20064;-65
2021/07/28 01:26:01;;;;;;;22.63;16.97;;;16.10;96.70;;;;;;5108229;28;20044;-65
2021/07/28 01:28:27;;;;;;;25.23;18.90;;;16.10;96.80;;;;;;5110324;28;20484;-64
2021/07/28 01:31:04;;;;;;;23.63;16.87;;;16.10;96.80;;;;;;5111704;28;20044;-64
2021/07/28 01:33:32;;;;;;;24.37;18.60;;;16.10;96.80;;;;;;5111646;28;20112;-64
2021/07/28 01:36:00;;;;;;;21.43;17.17;;;16.10;96.90;;;;;;5111798;28;20051;-64
2021/07/28 01:38:26;;;;;;;21.30;17.47;;;16.00;96.90;;;;;;5111805;28;20052;-64
2021/07/28 01:40:57;;;;;;;22.07;17.40;;;16.00;97.00;;;;;;5110713;28;20103;-65
2021/07/28 01:43:23;;;;;;;23.40;18.27;;;16.00;97.00;;;;;;5112181;28;20048;-65
2021/07/28 01:45:49;;;;;;;24.83;18.57;;;15.90;96.90;;;;;;5111803;28;20058;-64
2021/07/28 01:48:15;;;;;;;28.17;19.43;;;16.00;97.00;;;;;;5111176;28;20040;-65
2021/07/28 01:50:44;;;;;;;24.77;19.43;;;15.90;97.00;;;;;;5111634;28;20062;-65
2021/07/28 01:53:09;;;;;;;24.00;18.60;;;15.90;97.00;;;;;;5111950;28;20089;-65
2021/07/28 01:55:35;;;;;;;24.97;18.87;;;15.90;97.10;;;;;;5110644;28;20055;-65
2021/07/28 01:58:01;;;;;;;23.40;20.37;;;15.90;97.10;;;;;;5111020;28;20047;-65
2021/07/28 02:00:27;;;;;;;27.67;20.17;;;15.90;97.10;;;;;;5112027;28;20051;-65
2021/07/28 02:02:53;;;;;;;25.47;19.27;;;15.80;97.10;;;;;;5110559;28;20126;-64
2021/07/28 02:05:19;;;;;;;31.40;21.33;;;15.90;97.20;;;;;;5111044;27;20460;-65
2021/07/28 02:07:45;;;;;;;28.67;20.53;;;15.80;97.20;;;;;;5111033;27;20260;-65
2021/07/28 02:10:10;;;;;;;27.33;20.80;;;15.80;97.20;;;;;;5110838;28;20166;-65
2021/07/28 02:12:36;;;;;;;27.17;20.60;;;15.80;97.20;;;;;;5111042;27;20104;-65
2021/07/28 02:15:02;;;;;;;26.80;21.20;;;15.80;97.20;;;;;;5111209;27;20055;-66
2021/07/28 02:17:27;;;;;;;28.40;19.97;;;15.80;97.30;;;;;;5110725;28;20043;-65
2021/07/28 02:19:53;;;;;;;29.23;20.77;;;15.80;97.30;;;;;;5111145;28;20089;-65
2021/07/28 02:22:19;;;;;;;28.83;20.63;;;15.80;97.30;;;;;;5110600;28;20183;-65
2021/07/28 02:24:45;;;;;;;26.43;20.17;;;15.80;97.40;;;;;;5109727;28;20748;-65
2021/07/28 02:27:10;;;;;;;29.93;20.97;;;15.80;97.40;;;;;;5111104;28;20124;-65
2021/07/28 02:29:36;;;;;;;25.37;19.97;;;15.80;97.40;;;;;;5109976;28;20052;-65
2021/07/28 02:32:03;;;;;;;29.13;21.07;;;15.80;97.40;;;;;;5110326;28;20071;-66
2021/07/28 02:34:30;;;;;;;29.13;20.20;;;15.80;97.50;;;;;;5110603;28;20047;-65
2021/07/28 02:36:56;;;;;;;28.30;22.00;;;15.70;97.40;;;;;;5110447;28;20138;-65
2021/07/28 02:39:21;;;;;;;27.53;20.73;;;15.70;97.50;;;;;;5109985;28;20147;-65
2021/07/28 02:41:47;;;;;;;28.73;21.53;;;15.70;97.50;;;;;;5110892;28;20047;-66
2021/07/28 02:44:12;;;;;;;30.93;21.70;;;15.70;97.50;;;;;;5110074;28;20052;-65
2021/07/28 02:46:38;;;;;;;29.00;20.07;;;15.70;97.50;;;;;;5110530;28;20039;-65
2021/07/28 02:49:04;;;;;;;28.77;21.23;;;15.70;97.60;;;;;;5110009;28;20062;-65
2021/07/28 02:51:29;;;;;;;27.97;21.50;;;15.70;97.60;;;;;;5109597;28;20124;-65
2021/07/28 02:53:58;;;;;;;30.93;21.80;;;15.60;97.60;;;;;;5110785;28;20051;-65
2021/07/28 02:56:23;;;;;;;30.00;21.23;;;15.60;97.60;;;;;;5109775;28;20070;-64
2021/07/28 02:58:49;;;;;;;31.90;21.87;;;15.60;97.60;;;;;;5109280;28;20491;-65
2021/07/28 03:01:15;;;;;;;31.10;22.87;;;15.60;97.70;;;;;;5110081;28;20093;-65
2021/07/28 03:03:43;;;;;;;27.17;22.03;;;15.60;97.70;;;;;;5110672;28;20047;-65
2021/07/28 03:06:08;;;;;;;30.70;23.37;;;15.60;97.70;;;;;;5108867;28;20044;-65
2021/07/28 03:08:34;;;;;;;30.33;22.73;;;15.60;97.80;;;;;;5110361;28;20056;-65
2021/07/28 03:11:00;;;;;;;30.30;22.27;;;15.50;97.70;;;;;;5110075;28;20055;-66
2021/07/28 03:13:26;;;;;;;28.50;20.33;;;15.60;97.80;;;;;;5109186;28;20044;-65
2021/07/28 03:15:51;;;;;;;28.00;21.07;;;15.60;97.80;;;;;;5109822;28;20055;-65
2021/07/28 03:18:17;;;;;;;31.33;22.87;;;15.50;97.80;;;;;;5109452;28;20158;-65
2021/07/28 03:20:43;;;;;;;29.87;22.43;;;15.50;97.80;;;;;;5109693;28;20415;-64
2021/07/28 03:23:09;;;;;;;30.47;23.10;;;15.50;97.90;;;;;;5109209;28;20055;-65
2021/07/28 03:25:35;;;;;;;30.83;23.47;;;15.50;97.90;;;;;;5109844;28;20047;-64
2021/07/28 03:28:00;;;;;;;31.43;22.73;;;15.50;97.90;;;;;;5109282;28;20522;-65
2021/07/28 03:30:27;;;;;;;31.77;22.80;;;15.50;97.90;;;;;;5109715;28;20047;-65
2021/07/28 03:32:52;;;;;;;34.17;22.57;;;15.50;98.00;;;;;;5108823;28;20500;-65
2021/07/28 03:35:18;;;;;;;29.43;22.10;;;15.50;98.00;;;;;;5109557;28;20054;-65
2021/07/28 03:37:44;;;;;;;30.33;22.50;;;15.50;97.90;;;;;;5110205;28;20050;-65
2021/07/28 03:40:10;;;;;;;34.47;23.00;;;15.50;97.90;;;;;;5108320;28;20708;-65
2021/07/28 03:42:36;;;;;;;31.30;23.93;;;15.50;98.00;;;;;;5109221;28;20104;-65
2021/07/28 03:45:01;;;;;;;32.53;23.20;;;15.50;98.00;;;;;;5108730;28;20060;-65
2021/07/28 03:47:31;;;;;;;30.03;22.23;;;15.40;97.90;;;;;;5109171;28;20071;-65
2021/07/28 03:49:56;;;;;;;33.43;22.90;;;15.40;98.00;;;;;;5108572;28;20093;-65
2021/07/28 03:52:22;;;;;;;29.73;23.87;;;15.40;98.00;;;;;;5108898;28;20487;-65
2021/07/28 03:54:47;;;;;;;32.13;23.63;;;15.40;98.00;;;;;;5108900;28;20054;-65
2021/07/28 03:57:14;;;;;;;34.00;23.67;;;15.40;98.00;;;;;;5108788;28;20802;-65
2021/07/28 03:59:40;;;;;;;36.47;23.33;;;15.40;98.00;;;;;;5109030;28;20059;-65
2021/07/28 04:02:06;;;;;;;31.23;24.43;;;15.40;98.00;;;;;;5108397;28;20035;-65
2021/07/28 04:04:32;;;;;;;31.40;23.67;;;15.40;98.00;;;;;;5109450;28;20055;-64
2021/07/28 04:06:58;;;;;;;35.30;23.83;;;15.40;98.00;;;;;;5108750;28;20450;-64
2021/07/28 04:09:24;;;;;;;35.27;25.03;;;15.40;98.00;;;;;;5107881;28;20131;-64
2021/07/28 04:11:50;;;;;;;34.83;23.23;;;15.40;98.00;;;;;;5109221;28;20052;-64
2021/07/28 04:14:16;;;;;;;31.63;24.10;;;15.40;98.10;;;;;;5108881;28;20054;-65
2021/07/28 04:16:41;;;;;;;38.97;23.97;;;15.40;98.10;;;;;;5108286;28;20055;-65
2021/07/28 04:19:07;;;;;;;29.07;23.27;;;15.40;98.10;;;;;;5108304;28;20047;-65
2021/07/28 04:21:33;;;;;;;33.50;24.37;;;15.40;98.10;;;;;;5109385;28;20056;-64
2021/07/28 04:23:59;;;;;;;34.50;23.53;;;15.40;98.10;;;;;;5107694;28;20059;-65
2021/07/28 04:26:25;;;;;;;32.83;23.97;;;15.40;98.10;;;;;;5108699;28;20040;-65
2021/07/28 04:28:53;;;;;;;33.97;24.07;;;15.40;98.10;;;;;;5109048;28;20070;-65
2021/07/28 04:31:19;;;;;;;32.20;23.90;;;15.40;98.10;;;;;;5108106;28;20047;-64
2021/07/28 04:33:45;;;;;;;31.43;23.23;;;15.40;98.10;;;;;;5108554;28;20051;-65
2021/07/28 04:36:10;;;;;;;38.07;23.63;;;15.40;98.20;;;;;;5107485;28;20052;-65
2021/07/28 04:38:36;;;;;;;31.77;22.80;;;15.50;98.20;;;;;;5109035;28;20054;-64
2021/07/28 04:41:04;;;;;;;32.83;23.37;;;15.50;98.20;;;;;;5108429;28;20119;-64
2021/07/28 04:43:29;;;;;;;33.57;23.03;;;15.50;98.10;;;;;;5107846;28;20484;-65
2021/07/28 04:46:02;;;;;;;35.00;23.17;;;15.50;98.10;;;;;;5108554;28;20494;-64
2021/07/28 04:48:29;;;;;;;32.90;23.60;;;15.50;98.20;;;;;;5109006;28;20130;-64
2021/07/28 04:50:56;;;;;;;32.40;23.40;;;15.50;98.20;;;;;;5107971;28;20055;-65
2021/07/28 04:53:22;;;;;;;30.40;22.97;;;15.60;98.20;;;;;;5108124;28;20103;-65
2021/07/28 04:55:52;;;;;;;29.20;22.90;;;15.60;98.20;;;;;;5108788;28;20040;-65
2021/07/28 04:58:19;;;;;;;34.20;24.60;;;15.60;98.20;;;;;;5107907;28;20048;-65
2021/07/28 05:00:44;;;;;;;34.00;23.27;;;15.60;98.20;;;;;;5108309;28;20419;-65
2021/07/28 05:03:10;;;;;;;34.67;23.50;;;15.60;98.20;;;;;;5110819;28;20047;-65
2021/07/28 05:05:36;;;;;;;31.20;22.53;;;15.70;98.20;;;;;;5112022;28;20062;-65
2021/07/28 05:08:02;;;;;;;33.13;23.80;;;15.70;98.30;;;;;;5112057;28;20040;-65
2021/07/28 05:10:28;;;;;;;31.67;23.70;;;15.70;98.30;;;;;;5112239;28;20048;-65
2021/07/28 05:12:53;;;;;;;30.80;23.60;;;15.70;98.30;;;;;;5111543;28;20124;-65
2021/07/28 05:15:19;;;;;;;31.83;23.00;;;15.70;98.30;;;;;;5112274;28;20385;-65
2021/07/28 05:17:44;;;;;;;31.97;23.57;;;15.80;98.40;;;;;;5111596;28;20040;-65
2021/07/28 05:20:11;;;;;;;33.73;25.00;;;15.80;98.40;;;;;;5110737;28;20142;-65
2021/07/28 05:22:37;;;;;;;30.40;23.40;;;15.90;98.30;;;;;;5112360;28;20048;-65
2021/07/28 05:25:03;;;;;;;31.03;23.13;;;15.90;98.40;;;;;;5111684;28;20423;-64
2021/07/28 05:27:30;;;;;;;32.63;23.63;;;16.00;98.40;;;;;;5110943;27;20089;-65
2021/07/28 05:29:56;;;;;;;33.07;24.23;;;16.10;98.30;;;;;;5111501;28;20052;-65
2021/07/28 05:32:23;;;;;;;32.40;22.83;;;16.10;98.30;;;;;;5111082;28;20075;-65
2021/07/28 05:34:52;;;;;;;29.63;22.77;;;16.20;98.30;;;;;;5111371;28;20051;-65
2021/07/28 05:37:18;;;;;;;32.93;24.70;;;16.20;98.30;;;;;;5111246;28;20043;-65
2021/07/28 05:39:44;;;;;;;31.97;25.30;;;16.20;98.20;;;;;;5110419;28;20059;-65
2021/07/28 05:42:11;;;;;;;30.10;23.23;;;16.20;98.20;;;;;;5111862;28;20048;-64
2021/07/28 05:44:37;;;;;;;32.43;25.17;;;16.20;98.60;;;;;;5111080;28;20050;-65
2021/07/28 05:47:02;;;;;;;33.60;25.50;;;16.20;98.20;;;;;;5110607;28;20043;-65
2021/07/28 05:49:31;;;;;;;35.83;26.93;;;16.30;98.20;;;;;;5111362;28;20674;-65
2021/07/28 05:51:57;;;;;;;34.73;26.60;;;16.30;98.20;;;;;;5111636;28;20075;-65
2021/07/28 05:54:22;;;;;;;31.73;26.33;;;16.40;98.20;;;;;;5110258;28;20056;-66
2021/07/28 05:56:48;;;;;;;34.07;27.13;;;16.30;98.20;;;;;;5110854;28;20130;-65
2021/07/28 05:59:14;;;;;;;31.67;26.73;;;16.40;98.20;;;;;;5111167;28;20464;-64
2021/07/28 06:01:40;;;;;;;31.57;26.70;;;16.40;98.20;;;;;;5110312;28;20458;-64
2021/07/28 06:04:06;;;;;;;34.47;29.27;;;16.50;98.20;;;;;;5110096;28;20138;-64
2021/07/28 06:06:31;;;;;;;34.00;28.53;;;16.50;98.20;;;;;;5110465;28;20435;-64
2021/07/28 06:08:57;;;;;;;36.53;28.90;;;16.60;98.20;;;;;;5107852;28;20055;-64
2021/07/28 06:11:23;;;;;;;35.20;28.17;;;16.60;98.20;;;;;;5110257;28;20444;-65
2021/07/28 06:13:49;;;;;;;36.57;29.87;;;16.70;98.10;;;;;;5110233;28;20159;-65
2021/07/28 06:16:15;;;;;;;32.30;28.80;;;16.70;98.10;;;;;;5109912;28;20100;-64
2021/07/28 06:18:42;;;;;;;38.30;29.37;;;16.70;98.10;;;;;;5110742;28;20043;-64
2021/07/28 06:21:08;;;;;;;36.93;30.03;;;16.70;98.00;;;;;;5110133;28;20483;-64
2021/07/28 06:23:34;;;;;;;34.13;28.47;;;16.80;97.90;;;;;;5109447;28;20055;-64
2021/07/28 06:25:59;;;;;;;33.20;28.20;;;16.80;97.90;;;;;;5110628;28;20059;-64
2021/07/28 06:28:28;;;;;;;34.17;29.80;;;16.70;97.90;;;;;;5109886;28;20035;-64
2021/07/28 06:30:54;;;;;;;35.13;28.93;;;16.70;97.90;;;;;;5109556;28;20044;-65
2021/07/28 06:33:21;;;;;;;41.90;29.50;;;16.80;97.90;;;;;;5109552;28;20048;-63
2021/07/28 06:35:53;;;;;;;35.43;29.50;;;16.80;97.90;;;;;;5110111;28;20044;-64
2021/07/28 06:38:19;;;;;;;32.23;27.37;;;16.80;97.90;;;;;;5109602;28;20040;-64
2021/07/28 06:40:46;;;;;;;31.93;27.80;;;16.80;97.90;;;;;;5107850;28;20047;-65
2021/07/28 06:43:12;;;;;;;32.87;28.23;;;16.90;98.00;;;;;;5108930;28;20051;-65
2021/07/28 06:45:38;;;;;;;29.60;26.50;;;16.90;97.90;;;;;;5110704;27;20138;-65
2021/07/28 06:48:04;;;;;;;30.40;26.37;;;16.90;97.80;;;;;;5109311;28;20398;-65
2021/07/28 06:50:30;;;;;;;33.00;26.90;;;17.00;97.80;;;;;;5109374;28;20100;-68
2021/07/28 06:52:56;;;;;;;30.53;25.90;;;17.10;97.60;;;;;;5110410;28;20081;-65
2021/07/28 06:55:22;;;;;;;27.43;23.87;;;17.10;97.60;;;;;;5109412;28;20518;-66
2021/07/28 06:57:47;;;;;;;27.80;24.70;;;17.20;97.50;;;;;;5109297;28;20459;-65
2021/07/28 07:00:13;;;;;;;30.70;24.23;;;17.30;97.30;;;;;;5109341;28;20185;-66
2021/07/28 07:02:39;;;;;;;26.77;23.73;;;17.40;97.30;;;;;;5108001;27;20044;-65
2021/07/28 07:05:05;;;;;;;26.40;23.27;;;17.40;97.30;;;;;;5107952;28;20104;-66
2021/07/28 07:07:32;;;;;;;24.47;21.87;;;17.50;97.00;;;;;;5108006;27;20039;-66
2021/07/28 07:09:57;;;;;;;23.73;21.20;;;17.50;96.90;;;;;;5100467;27;20057;-67
2021/07/28 07:12:23;;;;;;;25.27;21.83;;;17.60;96.90;;;;;;5108204;27;20134;-64
2021/07/28 07:14:50;;;;;;;24.83;22.13;;;17.60;96.70;;;;;;5108196;27;20043;-65
2021/07/28 07:17:16;;;;;;;24.53;21.93;;;17.60;96.50;;;;;;5109400;28;20040;-65
2021/07/28 07:19:42;;;;;;;24.33;21.73;;;17.70;96.40;;;;;;5108670;27;20476;-65
2021/07/28 07:22:09;;;;;;;23.87;20.87;;;17.70;96.40;;;;;;5102032;27;20040;-64
2021/07/28 07:24:36;;;;;;;24.80;22.07;;;17.80;96.80;;;;;;5105394;27;20055;-66
2021/07/28 07:27:02;;;;;;;25.83;20.30;;;17.80;96.20;;;;;;5105722;27;20044;-65
2021/07/28 07:29:27;;;;;;;25.13;21.07;;;17.90;96.10;;;;;;5108797;28;20130;-67
2021/07/28 07:31:53;;;;;;;26.47;22.17;;;17.90;96.00;;;;;;5101531;27;20142;-66
2021/07/28 07:34:19;;;;;;;23.77;21.00;;;17.90;95.90;;;;;;5106349;28;20488;-66
2021/07/28 07:36:45;;;;;;;24.67;22.17;;;18.00;95.90;;;;;;5109590;28;20048;-65
2021/07/28 07:39:11;;;;;;;24.23;21.70;;;18.00;95.80;;;;;;5106008;27;20069;-66
2021/07/28 07:41:37;;;;;;;24.13;21.60;;;18.00;95.70;;;;;;5088761;28;20044;-66
2021/07/28 07:44:03;;;;;;;24.70;22.10;;;18.10;95.70;;;;;;5095181;28;20051;-66
2021/07/28 07:46:29;;;;;;;24.77;20.77;;;18.10;95.60;;;;;;5109293;28;20079;-66
2021/07/28 07:48:56;;;;;;;23.40;20.97;;;18.20;95.60;;;;;;5109019;28;20440;-65
2021/07/28 07:51:28;;;;;;;23.13;20.67;;;18.30;95.50;;;;;;5108674;28;20051;-66
2021/07/28 07:53:53;;;;;;;22.73;20.30;;;18.30;95.30;;;;;;5108282;28;20071;-66
2021/07/28 07:56:19;;;;;;;21.83;19.53;;;18.30;95.30;;;;;;5108905;28;20104;-66
2021/07/28 07:58:45;;;;;;;21.87;19.60;;;18.40;95.30;;;;;;5108855;28;20051;-66
2021/07/28 08:01:13;;;;;;;21.60;19.43;;;18.40;95.30;;;;;;5107400;28;20090;-66
2021/07/28 08:03:40;;;;;;;20.63;18.63;;;18.50;95.20;;;;;;5109120;28;20047;-65
2021/07/28 08:06:07;;;;;;;21.97;19.77;;;18.50;94.80;;;;;;5108436;28;20063;-66
2021/07/28 08:08:33;;;;;;;21.50;19.43;;;18.60;94.90;;;;;;5107530;28;20068;-66
2021/07/28 08:11:00;;;;;;;20.97;18.87;;;18.70;94.60;;;;;;5108758;28;20081;-65
2021/07/28 08:13:27;;;;;;;21.47;19.37;;;18.70;94.50;;;;;;5109213;28;20503;-66
2021/07/28 08:15:53;;;;;;;21.37;19.17;;;18.80;94.40;;;;;;5107718;28;20103;-67
2021/07/28 08:18:19;;;;;;;21.23;19.17;;;18.80;94.40;;;;;;5108400;28;20131;-66
2021/07/28 08:20:45;;;;;;;19.70;17.70;;;19.00;94.70;;;;;;5108682;28;20519;-66
2021/07/28 08:23:13;;;;;;;19.30;17.30;;;19.20;94.40;;;;;;5108039;28;20056;-67
2021/07/28 08:25:39;;;;;;;20.03;17.57;;;19.40;94.10;;;;;;5108427;28;20457;-66
2021/07/28 08:28:04;;;;;;;19.27;17.30;;;19.50;93.80;;;;;;5108011;28;20051;-66
2021/07/28 08:30:30;;;;;;;19.23;16.43;;;19.60;93.40;;;;;;5107985;28;20051;-66
2021/07/28 08:32:56;;;;;;;20.63;18.27;;;19.60;93.00;;;;;;5108499;28;20055;-66
2021/07/28 08:35:21;;;;;;;19.40;16.67;;;19.60;92.30;;;;;;5107383;28;20105;-66
2021/07/28 08:37:47;;;;;;;18.73;16.80;;;19.50;92.20;;;;;;5112635;28;20655;-66
2021/07/28 08:40:15;;;;;;;19.83;17.73;;;19.40;92.30;;;;;;5113012;28;20453;-66
2021/07/28 08:42:45;;;;;;;19.20;17.17;;;19.30;92.40;;;;;;5111197;28;20138;-66
2021/07/28 08:45:14;;;;;;;20.08;17.42;;;19.40;92.40;;;;;;5112131;28;20100;-66
2021/07/28 08:47:41;;;;;;;17.80;15.97;;;19.40;92.10;;;;;;5111756;27;20048;-66
2021/07/28 08:50:09;;;;;;;16.57;14.87;;;19.40;92.10;;;;;;5111853;28;20077;-67
2021/07/28 08:52:39;;;;;;;19.10;16.07;;;19.40;92.00;;;;;;5112142;28;20093;-66
2021/07/28 08:55:06;;;;;;;18.10;14.97;;;19.30;91.80;;;;;;5113354;28;20522;-67
2021/07/28 08:57:33;;;;;;;19.57;15.70;;;19.40;91.70;;;;;;5115788;28;20054;-67
2021/07/28 08:59:59;;;;;;;17.17;15.20;;;19.30;91.60;;;;;;5116004;28;20051;-67
2021/07/28 09:02:26;;;;;;;18.80;16.00;;;19.30;91.50;;;;;;5115981;28;20047;-66
2021/07/28 09:04:52;;;;;;;17.93;16.03;;;19.30;91.50;;;;;;5115845;28;20051;-66
2021/07/28 09:07:20;;;;;;;17.57;14.87;;;19.30;91.60;;;;;;5115809;28;20052;-66
2021/07/28 09:09:57;;;;;;;18.60;15.23;;;19.30;91.30;;;;;;5116113;27;20498;-67
2021/07/28 09:12:34;;;;;;;18.07;15.40;;;19.40;91.20;;;;;;5114746;28;20048;-67
2021/07/28 09:15:05;;;;;;;17.10;15.30;;;19.40;90.70;;;;;;5115097;28;20488;-67
2021/07/28 09:17:35;;;;;;;16.27;14.70;;;19.40;90.60;;;;;;5114787;28;20396;-67
2021/07/28 09:20:01;;;;;;;15.23;13.63;;;19.40;90.40;;;;;;5114313;28;20047;-68
2021/07/28 09:22:40;;;;;;;16.07;13.93;;;19.50;90.50;;;;;;5115812;28;20189;-67
2021/07/28 09:25:08;;;;;;;15.50;14.00;;;19.50;90.60;;;;;;5114339;28;20071;-67
2021/07/28 09:27:49;;;;;;;18.67;14.03;;;19.60;91.00;;;;;;5115299;28;20104;-67
2021/07/28 09:30:30;;;;;;;18.30;12.63;;;19.90;90.50;;;;;;5115246;28;20101;-67
2021/07/28 09:33:04;;;;;;;14.57;13.02;;;20.10;90.60;;;;;;5114756;28;20044;-67
2021/07/28 09:35:48;;;;;;;15.90;13.27;;;20.40;90.70;;;;;;5115248;28;20047;-67
2021/07/28 09:38:32;;;;;;;13.83;12.47;;;20.50;87.80;;;;;;5115150;28;20067;-67
2021/07/28 09:41:17;;;;;;;14.13;12.67;;;20.40;87.30;;;;;;5115772;28;20059;-67
2021/07/28 09:43:47;;;;;;;14.60;13.10;;;20.20;87.40;;;;;;5115145;28;20047;-67
2021/07/28 09:46:32;;;;;;;15.35;12.65;;;20.20;87.90;;;;;;5113896;28;20055;-67
2021/07/28 09:49:02;;;;;;;14.50;12.87;;;20.10;87.90;;;;;;5114074;28;20054;-66
2021/07/28 09:51:35;;;;;;;15.10;13.23;;;20.20;88.10;;;;;;5114912;28;20426;-66
2021/07/28 09:54:06;;;;;;;14.77;12.03;;;20.30;88.20;;;;;;5113956;28;20043;-67
2021/07/28 09:56:44;;;;;;;12.25;10.95;;;20.30;87.20;;;;;;5114980;28;20044;-67
2021/07/28 09:59:10;;;;;;;14.00;10.33;;;20.20;85.60;;;;;;5114705;28;20051;-67
2021/07/28 10:01:36;;;;;;;15.73;11.60;;;20.20;85.90;;;;;;5114417;28;20080;-67
2021/07/28 10:04:05;;;;;;;12.37;11.17;;;20.20;85.80;;;;;;5114554;28;20386;-66
2021/07/28 10:06:40;;;;;;;12.17;10.97;;;20.20;86.10;;;;;;5114725;28;20040;-67
2021/07/28 10:09:20;;;;;;;10.17;9.10;;;20.30;85.50;;;;;;5114241;28;20047;-67
2021/07/28 10:11:48;;;;;;;9.73;8.73;;;20.40;85.30;;;;;;5114700;28;20048;-67
2021/07/28 10:14:19;;;;;;;11.80;9.03;;;20.50;85.10;;;;;;5113662;28;20383;-67
2021/07/28 10:16:45;;;;;;;13.48;9.40;;;20.50;83.80;;;;;;5114524;28;20087;-67
2021/07/28 10:19:11;;;;;;;10.90;8.80;;;20.50;83.80;;;;;;5114055;28;20051;-67
2021/07/28 10:21:37;;;;;;;11.57;8.77;;;20.50;83.00;;;;;;5113759;28;20048;-67
2021/07/28 10:24:05;;;;;;;9.50;8.60;;;20.40;83.20;;;;;;5113838;28;20093;-67
2021/07/28 10:26:48;;;;;;;9.37;8.43;;;20.30;83.00;;;;;;5114542;28;20056;-67
2021/07/28 10:29:15;;;;;;;9.50;8.20;;;20.40;82.10;;;;;;5113428;27;20051;-68
2021/07/28 10:31:45;;;;;;;10.87;9.10;;;20.50;82.10;;;;;;5114159;28;20067;-67
2021/07/28 10:34:34;;;;;;;10.13;8.52;;;20.80;81.90;;;;;;5113737;28;20043;-67
2021/07/28 10:37:10;;;;;;;9.47;8.10;;;21.00;79.40;;;;;;5113006;27;20048;-67
2021/07/28 10:39:47;;;;;;;9.40;8.30;;;21.10;79.70;;;;;;5113999;28;20075;-67
2021/07/28 10:42:39;;;;;;;10.45;8.90;;;21.20;79.70;;;;;;5112947;28;20063;-68
2021/07/28 10:45:09;;;;;;;11.02;9.88;;;21.40;78.60;;;;;;5113505;28;20100;-67
2021/07/28 10:47:41;;;;;;;8.88;8.05;;;21.40;78.20;;;;;;5114020;28;20054;-67
2021/07/28 10:50:08;;;;;;;11.33;10.13;;;21.40;78.40;;;;;;5112582;28;20067;-68
2021/07/28 10:52:44;;;;;;;11.50;9.27;;;21.40;77.90;;;;;;5113539;28;20052;-68
2021/07/28 10:55:15;;;;;;;10.82;9.65;;;21.40;77.80;;;;;;5113310;28;20066;-68
2021/07/28 10:57:51;;;;;;;9.98;8.15;;;21.30;78.20;;;;;;5112977;28;20047;-67
2021/07/28 11:00:35;;;;;;;9.68;8.77;;;21.20;78.30;;;;;;5113300;28;20138;-66
2021/07/28 11:03:00;;;;;;;15.30;8.73;;;21.00;79.10;;;;;;5112470;28;20052;-67
2021/07/28 11:05:34;;;;;;;14.65;8.60;;;20.80;79.00;;;;;;5113414;28;20126;-67
2021/07/28 11:08:03;;;;;;;10.90;8.40;;;20.70;78.60;;;;;;5113123;28;20044;-67
2021/07/28 11:10:34;;;;;;;9.20;8.00;;;20.60;79.40;;;;;;5112463;28;20044;-66
2021/07/28 11:13:04;;;;;;;;;;;20.60;79.30;;;;;;5113256;28;20414;-66
2021/07/28 11:15:29;;;;;;;9.00;8.03;;;20.60;80.00;;;;;;5112839;28;19920;-67
2021/07/28 11:17:56;;;;;;;10.83;8.87;;;20.80;79.80;;;;;;5112081;28;20101;-68
2021/07/28 11:20:35;;;;;;;9.73;8.33;;;20.90;78.30;;;;;;5112634;28;20560;-66
2021/07/28 11:23:27;;;;;;;9.20;8.20;;;20.90;76.80;;;;;;5112655;28;20054;-66
2021/07/28 11:25:58;;;;;;;11.57;8.17;;;21.00;77.30;;;;;;5112319;28;20050;-66
2021/07/28 11:28:27;;;;;;;8.73;7.83;;;21.00;77.50;;;;;;5112680;28;20112;-67
2021/07/28 11:30:58;;;;;;;10.07;8.52;;;21.00;77.40;;;;;;5113081;27;20044;-66
2021/07/28 11:33:25;;;;;;;9.43;7.53;;;20.90;77.90;;;;;;5112101;28;20116;-68
2021/07/28 11:35:52;;;;;;;8.77;7.13;;;20.90;77.70;;;;;;5112713;28;20076;-66
2021/07/28 11:38:22;;;;;;;9.40;8.13;;;20.70;77.30;;;;;;5111756;28;20044;-66
2021/07/28 11:40:50;;;;;;;7.97;7.13;;;20.70;77.90;;;;;;5112752;28;20072;-66
2021/07/28 11:43:32;;;;;;;10.80;8.07;;;20.60;78.20;;;;;;5112524;28;20044;-66
2021/07/28 11:46:04;;;;;;;8.03;6.73;;;20.60;78.10;;;;;;5111900;28;20563;-67
2021/07/28 11:48:44;;;;;;;10.00;6.67;;;20.50;78.10;;;;;;5112587;28;20063;-67
2021/07/28 11:51:11;;;;;;;9.17;6.67;;;20.50;77.80;;;;;;5112353;28;20070;-67
2021/07/28 11:53:37;;;;;;;9.50;6.57;;;20.40;78.60;;;;;;5111796;28;20488;-66
2021/07/28 11:56:16;;;;;;;7.63;6.63;;;20.40;78.70;;;;;;5112226;28;20188;-67
2021/07/28 11:58:51;;;;;;;7.37;5.57;;;20.30;79.10;;;;;;5112284;27;20051;-67
2021/07/28 12:01:32;;;;;;;8.33;5.40;;;20.40;78.90;;;;;;5111376;28;20457;-66
2021/07/28 12:04:05;;;;;;;8.27;6.00;;;20.40;79.00;;;;;;5112231;28;20044;-67
2021/07/28 12:06:42;;;;;;;7.87;5.87;;;20.40;78.80;;;;;;5112022;28;20433;-67
2021/07/28 12:09:19;;;;;;;8.90;6.00;;;20.50;78.00;;;;;;5111774;28;20048;-68
2021/07/28 12:12:06;;;;;;;8.20;6.30;;;20.40;77.60;;;;;;5111717;28;20100;-67
2021/07/28 12:14:36;;;;;;;7.67;6.03;;;20.40;77.70;;;;;;5111411;28;20464;-67
2021/07/28 12:17:13;;;;;;;7.33;6.17;;;20.40;78.30;;;;;;5112026;28;20082;-66
2021/07/28 12:19:49;;;;;;;9.87;7.03;;;20.50;78.70;;;;;;5112039;28;20071;-67
2021/07/28 12:22:15;;;;;;;11.90;6.30;;;20.60;78.30;;;;;;5111190;28;20050;-67
2021/07/28 12:24:46;;;;;;;7.80;6.13;;;20.50;78.80;;;;;;5111715;28;20063;-66
2021/07/28 12:27:33;;;;;;;6.72;6.00;;;20.60;78.80;;;;;;5112005;28;20118;-67
2021/07/28 12:30:17;;;;;;;7.40;5.63;;;20.70;79.50;;;;;;5111659;28;20464;-68
2021/07/28 12:33:01;;;;;;;8.23;5.87;;;20.90;78.90;;;;;;5112026;28;20048;-67
2021/07/28 12:35:41;;;;;;;9.13;6.37;;;21.00;76.70;;;;;;5111194;28;20048;-67
2021/07/28 12:38:12;;;;;;;10.27;5.47;;;21.10;76.60;;;;;;5111637;28;20048;-66
2021/07/28 12:40:45;;;;;;;;;;;21.10;77.40;;;;;;5112252;28;20081;-66